createdAt,value
2023-09-29T00:00:42.891Z,78.28
2023-09-29T00:01:48.301Z,78.16
2023-09-29T00:02:51.997Z,78.58
2023-09-29T00:03:55.768Z,79.15
2023-09-29T00:04:58.288Z,78.61
2023-09-29T00:06:04.882Z,78.75
2023-09-29T00:07:08.613Z,78.30
2023-09-29T00:08:16.877Z,78.08
2023-09-29T00:09:19.307Z,78.74
2023-09-29T00:10:23.733Z,78.28
2023-09-29T00:11:26.380Z,78.24
2023-09-29T00:12:29.997Z,78.51
2023-09-29T00:13:33.057Z,78.31
2023-09-29T00:14:36.511Z,77.50
2023-09-29T00:15:40.238Z,77.35
2023-09-29T00:16:43.915Z,78.00
2023-09-29T00:17:46.915Z,78.12
2023-09-29T00:18:51.478Z,78.42
2023-09-29T00:19:54.180Z,79.13
2023-09-29T00:20:57.624Z,78.71
2023-09-29T00:22:01.593Z,78.80
2023-09-29T00:23:05.739Z,78.19
2023-09-29T00:24:08.727Z,78.05
2023-09-29T00:25:11.313Z,77.27
2023-09-29T00:26:14.945Z,76.68
2023-09-29T00:27:17.468Z,77.83
2023-09-29T00:28:20.882Z,77.99
2023-09-29T00:29:23.914Z,78.10
2023-09-29T00:30:27.931Z,77.99
2023-09-29T00:31:30.541Z,78.73
2023-09-29T00:32:34.388Z,79.07
2023-09-29T00:33:36.936Z,78.68
2023-09-29T00:34:40.595Z,79.40
2023-09-29T00:35:43.298Z,79.98
2023-09-29T00:36:48.749Z,79.26
2023-09-29T00:37:53.161Z,78.94
2023-09-29T00:38:57.201Z,79.00
2023-09-29T00:39:59.989Z,79.23
2023-09-29T00:41:03.474Z,78.67
2023-09-29T00:42:08.007Z,78.31
2023-09-29T00:43:12.874Z,78.71
2023-09-29T00:44:15.350Z,77.98
2023-09-29T00:45:20.887Z,78.25
2023-09-29T00:46:26.536Z,78.42
2023-09-29T00:47:30.501Z,78.73
2023-09-29T00:48:34.862Z,79.34
2023-09-29T00:49:37.397Z,78.60
2023-09-29T00:50:41.582Z,78.57
2023-09-29T00:51:44.050Z,78.62
2023-09-29T00:52:48.254Z,77.94
2023-09-29T00:53:53.884Z,77.30
2023-09-29T00:54:57.805Z,77.54
2023-09-29T00:56:01.911Z,76.69
2023-09-29T00:57:07.223Z,77.12
2023-09-29T00:58:12.169Z,77.44
2023-09-29T00:59:15.828Z,76.96
2023-09-29T01:00:34.088Z,77.42
2023-09-29T01:01:36.808Z,77.50
2023-09-29T01:02:40.365Z,77.16
2023-09-29T01:03:43.204Z,77.13
2023-09-29T01:04:47.818Z,77.27
2023-09-29T01:05:53.324Z,77.10
2023-09-29T01:06:58.260Z,77.18
2023-09-29T01:08:00.886Z,77.03
2023-09-29T01:09:07.892Z,76.81
2023-09-29T01:10:12.640Z,76.94
2023-09-29T01:11:16.334Z,77.62
2023-09-29T01:12:28.623Z,77.97
2023-09-29T01:13:31.493Z,77.85
2023-09-29T01:14:35.243Z,77.98
2023-09-29T01:15:39.343Z,77.84
2023-09-29T01:16:43.857Z,77.40
2023-09-29T01:17:48.266Z,76.67
2023-09-29T01:18:52.945Z,77.03
2023-09-29T01:19:55.585Z,78.08
2023-09-29T01:20:59.015Z,77.59
2023-09-29T01:22:01.503Z,78.33
2023-09-29T01:23:06.667Z,78.30
2023-09-29T01:24:10.780Z,78.36
2023-09-29T01:25:14.544Z,78.17
2023-09-29T01:26:17.534Z,77.90
2023-09-29T01:27:21.305Z,78.65
2023-09-29T01:28:23.834Z,77.64
2023-09-29T01:29:27.401Z,78.04
2023-09-29T01:30:29.943Z,79.00
2023-09-29T01:31:35.784Z,78.79
2023-09-29T01:32:38.429Z,78.37
2023-09-29T01:33:41.996Z,78.25
2023-09-29T01:34:44.622Z,78.63
2023-09-29T01:35:48.345Z,77.47
2023-09-29T01:36:50.887Z,77.94
2023-09-29T01:37:56.242Z,77.83
2023-09-29T01:38:59.116Z,78.08
2023-09-29T01:40:06.367Z,77.99
2023-09-29T01:41:09.340Z,77.71
2023-09-29T01:42:12.906Z,78.35
2023-09-29T01:43:17.566Z,79.20
2023-09-29T01:44:21.206Z,79.31
2023-09-29T01:45:24.442Z,79.50
2023-09-29T01:46:27.965Z,79.01
2023-09-29T01:47:32.012Z,78.72
2023-09-29T01:48:35.843Z,78.97
2023-09-29T01:49:38.362Z,78.16
2023-09-29T01:50:41.850Z,77.76
2023-09-29T01:51:46.206Z,77.29
2023-09-29T01:52:50.717Z,76.90
2023-09-29T01:53:54.101Z,77.16
2023-09-29T01:54:57.056Z,77.25
2023-09-29T01:56:03.419Z,76.69
2023-09-29T01:57:06.237Z,77.09
2023-09-29T01:58:10.405Z,77.49
2023-09-29T01:59:14.487Z,77.78
2023-09-29T02:00:20.935Z,77.27
2023-09-29T02:01:23.706Z,76.81
2023-09-29T02:02:27.405Z,77.62
2023-09-29T02:03:31.162Z,76.99
2023-09-29T02:04:34.397Z,77.05
2023-09-29T02:05:38.083Z,77.05
2023-09-29T02:06:41.777Z,78.33
2023-09-29T02:07:45.426Z,79.27
2023-09-29T02:08:48.231Z,79.42
2023-09-29T02:09:52.992Z,78.53
2023-09-29T02:10:58.136Z,79.36
2023-09-29T02:12:03.723Z,79.85
2023-09-29T02:13:06.653Z,79.87
2023-09-29T02:14:10.389Z,80.43
2023-09-29T02:15:13.796Z,80.64
2023-09-29T02:16:17.552Z,80.33
2023-09-29T02:17:19.970Z,80.57
2023-09-29T02:18:24.374Z,80.15
2023-09-29T02:19:27.036Z,80.44
2023-09-29T02:20:31.579Z,81.01
2023-09-29T02:21:36.200Z,81.10
2023-09-29T02:22:39.729Z,81.59
2023-09-29T02:23:42.234Z,81.04
2023-09-29T02:24:46.382Z,79.90
2023-09-29T02:25:49.802Z,80.23
2023-09-29T02:26:53.262Z,80.17
2023-09-29T02:27:58.457Z,80.59
2023-09-29T02:29:02.000Z,80.36
2023-09-29T02:30:05.526Z,79.41
2023-09-29T02:31:14.360Z,79.39
2023-09-29T02:32:17.028Z,79.23
2023-09-29T02:33:20.650Z,79.68
2023-09-29T02:34:23.253Z,80.22
2023-09-29T02:35:26.090Z,80.43
2023-09-29T02:36:30.013Z,79.83
2023-09-29T02:37:32.879Z,79.35
2023-09-29T02:38:38.007Z,79.58
2023-09-29T02:39:40.495Z,79.64
2023-09-29T02:40:44.490Z,79.89
2023-09-29T02:41:47.033Z,79.77
2023-09-29T02:42:50.796Z,79.23
2023-09-29T02:43:54.717Z,79.99
2023-09-29T02:44:57.442Z,80.17
2023-09-29T02:46:01.085Z,80.22
2023-09-29T02:47:04.322Z,80.21
2023-09-29T02:48:08.727Z,79.77
2023-09-29T02:49:11.530Z,79.72
2023-09-29T02:50:15.590Z,79.03
2023-09-29T02:51:18.524Z,78.40
2023-09-29T02:52:21.858Z,78.81
2023-09-29T02:53:25.547Z,78.88
2023-09-29T02:54:28.096Z,78.82
2023-09-29T02:55:31.643Z,79.20
2023-09-29T02:56:35.206Z,78.90
2023-09-29T02:57:38.629Z,79.35
2023-09-29T02:58:41.504Z,79.17
2023-09-29T02:59:47.707Z,79.32
2023-09-29T03:00:50.675Z,78.83
2023-09-29T03:01:54.340Z,79.79
2023-09-29T03:02:57.756Z,79.78
2023-09-29T03:04:02.622Z,79.91
2023-09-29T03:05:10.083Z,80.54
2023-09-29T03:06:17.586Z,80.70
2023-09-29T03:07:20.416Z,81.23
2023-09-29T03:08:24.578Z,80.74
2023-09-29T03:09:27.075Z,80.52
2023-09-29T03:10:31.162Z,80.66
2023-09-29T03:11:34.053Z,81.06
2023-09-29T03:12:38.129Z,80.56
2023-09-29T03:13:41.590Z,80.45
2023-09-29T03:14:46.626Z,80.13
2023-09-29T03:15:50.164Z,80.75
2023-09-29T03:16:55.248Z,81.01
2023-09-29T03:17:59.905Z,81.66
2023-09-29T03:19:04.685Z,80.98
2023-09-29T03:20:12.566Z,80.92
2023-09-29T03:21:16.850Z,81.28
2023-09-29T03:22:20.168Z,81.66
2023-09-29T03:23:23.726Z,80.91
2023-09-29T03:24:29.196Z,81.35
2023-09-29T03:25:35.243Z,82.07
2023-09-29T03:26:37.753Z,82.53
2023-09-29T03:27:41.250Z,82.29
2023-09-29T03:28:44.878Z,81.78
2023-09-29T03:29:49.119Z,81.24
2023-09-29T03:30:53.166Z,81.34
2023-09-29T03:31:56.428Z,81.82
2023-09-29T03:33:02.719Z,81.55
2023-09-29T03:34:05.434Z,81.37
2023-09-29T03:35:10.472Z,80.29
2023-09-29T03:36:13.012Z,80.80
2023-09-29T03:37:16.534Z,80.25
2023-09-29T03:38:21.985Z,79.23
2023-09-29T03:39:25.639Z,79.40
2023-09-29T03:40:28.171Z,79.36
2023-09-29T03:41:31.646Z,79.04
2023-09-29T03:42:34.578Z,78.58
2023-09-29T03:43:37.973Z,78.53
2023-09-29T03:44:40.545Z,78.69
2023-09-29T03:45:45.476Z,78.16
2023-09-29T03:46:47.920Z,77.93
2023-09-29T03:47:52.889Z,78.86
2023-09-29T03:48:55.567Z,79.91
2023-09-29T03:49:59.403Z,80.34
2023-09-29T03:51:04.219Z,80.30
2023-09-29T03:52:09.363Z,80.89
2023-09-29T03:53:12.354Z,81.13
2023-09-29T03:54:15.896Z,80.44
2023-09-29T03:55:18.858Z,81.10
2023-09-29T03:56:24.526Z,81.46
2023-09-29T03:57:27.177Z,81.09
2023-09-29T03:58:30.729Z,81.88
2023-09-29T03:59:34.158Z,82.12
2023-09-29T04:00:37.690Z,82.90
2023-09-29T04:01:41.797Z,83.24
2023-09-29T04:02:44.495Z,82.88
2023-09-29T04:03:48.342Z,81.73
2023-09-29T04:04:50.894Z,82.58
2023-09-29T04:05:55.294Z,82.37
2023-09-29T04:06:57.813Z,82.88
2023-09-29T04:08:02.577Z,83.20
2023-09-29T04:09:06.250Z,83.65
2023-09-29T04:10:10.246Z,83.96
2023-09-29T04:11:13.903Z,83.44
2023-09-29T04:12:16.550Z,83.82
2023-09-29T04:13:20.023Z,83.19
2023-09-29T04:14:33.705Z,83.45
2023-09-29T04:15:37.992Z,83.76
2023-09-29T04:16:41.870Z,83.35
2023-09-29T04:17:45.599Z,83.78
2023-09-29T04:18:48.201Z,83.35
2023-09-29T04:19:51.912Z,83.36
2023-09-29T04:20:54.431Z,83.34
2023-09-29T04:21:59.103Z,83.32
2023-09-29T04:23:01.680Z,83.05
2023-09-29T04:24:05.732Z,82.62
2023-09-29T04:25:11.093Z,82.51
2023-09-29T04:26:18.104Z,82.35
2023-09-29T04:27:20.788Z,81.92
2023-09-29T04:28:24.448Z,83.03
2023-09-29T04:29:26.874Z,83.32
2023-09-29T04:30:30.914Z,83.06
2023-09-29T04:31:33.350Z,82.88
2023-09-29T04:32:38.496Z,82.87
2023-09-29T04:33:41.801Z,81.81
2023-09-29T04:34:45.427Z,82.33
2023-09-29T04:35:47.913Z,81.60
2023-09-29T04:36:51.553Z,81.66
2023-09-29T04:37:54.277Z,81.81
2023-09-29T04:38:58.268Z,83.20
2023-09-29T04:40:01.145Z,82.61
2023-09-29T04:41:05.991Z,83.00
2023-09-29T04:42:11.807Z,83.41
2023-09-29T04:43:16.282Z,83.22
2023-09-29T04:44:19.022Z,83.04
2023-09-29T04:45:22.461Z,83.07
2023-09-29T04:46:25.015Z,83.39
2023-09-29T04:47:29.158Z,83.29
2023-09-29T04:48:33.296Z,83.26
2023-09-29T04:49:36.935Z,82.82
2023-09-29T04:50:39.432Z,81.98
2023-09-29T04:51:44.928Z,82.34
2023-09-29T04:52:47.307Z,82.18
2023-09-29T04:53:51.245Z,82.14
2023-09-29T04:54:53.964Z,82.47
2023-09-29T04:56:01.923Z,82.39
2023-09-29T04:57:04.428Z,82.36
2023-09-29T04:58:10.516Z,82.23
2023-09-29T04:59:12.971Z,82.31
2023-09-29T05:00:17.884Z,82.38
2023-09-29T05:01:20.653Z,81.94
2023-09-29T05:02:26.069Z,81.43
2023-09-29T05:03:29.113Z,81.73
2023-09-29T05:04:34.412Z,82.22
2023-09-29T05:05:37.049Z,82.36
2023-09-29T05:06:40.650Z,82.56
2023-09-29T05:07:44.668Z,82.56
2023-09-29T05:08:48.357Z,83.44
2023-09-29T05:09:50.814Z,82.36
2023-09-29T05:10:54.322Z,82.66
2023-09-29T05:11:57.119Z,82.88
2023-09-29T05:13:00.720Z,82.79
2023-09-29T05:14:03.075Z,82.96
2023-09-29T05:15:07.505Z,83.21
2023-09-29T05:16:11.271Z,83.27
2023-09-29T05:17:14.924Z,83.30
2023-09-29T05:18:17.558Z,84.54
2023-09-29T05:19:21.372Z,84.61
2023-09-29T05:20:25.372Z,85.21
2023-09-29T05:21:29.604Z,85.84
2023-09-29T05:22:32.960Z,85.02
2023-09-29T05:23:36.710Z,84.49
2023-09-29T05:24:39.821Z,84.59
2023-09-29T05:25:47.928Z,84.73
2023-09-29T05:26:50.548Z,85.08
2023-09-29T05:27:54.133Z,84.61
2023-09-29T05:28:56.923Z,84.14
2023-09-29T05:30:00.904Z,84.08
2023-09-29T05:31:05.106Z,84.85
2023-09-29T05:32:10.244Z,84.47
2023-09-29T05:33:13.038Z,83.85
2023-09-29T05:34:16.622Z,83.21
2023-09-29T05:35:20.384Z,84.41
2023-09-29T05:36:24.613Z,84.88
2023-09-29T05:37:28.320Z,84.05
2023-09-29T05:38:30.932Z,84.09
2023-09-29T05:39:34.984Z,84.17
2023-09-29T05:40:39.664Z,84.00
2023-09-29T05:41:43.220Z,83.62
2023-09-29T05:42:53.313Z,84.16
2023-09-29T05:43:57.632Z,84.42
2023-09-29T05:45:00.244Z,83.83
2023-09-29T05:46:04.142Z,83.79
2023-09-29T05:47:07.035Z,83.35
2023-09-29T05:48:10.949Z,83.45
2023-09-29T05:49:13.694Z,83.57
2023-09-29T05:50:19.319Z,83.56
2023-09-29T05:51:23.863Z,83.42
2023-09-29T05:52:28.055Z,84.34
2023-09-29T05:53:30.876Z,83.73
2023-09-29T05:54:34.922Z,83.73
2023-09-29T05:55:37.474Z,82.84
2023-09-29T05:56:40.921Z,83.04
2023-09-29T05:57:43.446Z,83.32
2023-09-29T05:58:46.010Z,82.52
2023-09-29T05:59:49.825Z,82.66
2023-09-29T06:00:52.833Z,83.78
2023-09-29T06:02:08.722Z,83.63
2023-09-29T06:03:19.071Z,82.63
2023-09-29T06:04:23.704Z,81.87
2023-09-29T06:05:27.670Z,81.82
2023-09-29T06:06:33.143Z,82.09
2023-09-29T06:07:35.785Z,82.97
2023-09-29T06:09:45.079Z,83.26
2023-09-29T06:10:48.758Z,83.44
2023-09-29T06:11:51.354Z,83.23
2023-09-29T06:12:55.124Z,82.70
2023-09-29T06:13:58.915Z,83.49
2023-09-29T06:15:02.869Z,84.34
2023-09-29T06:16:06.077Z,84.91
2023-09-29T06:17:09.636Z,84.36
2023-09-29T06:18:12.342Z,84.05
2023-09-29T06:19:16.379Z,84.46
2023-09-29T06:20:20.608Z,84.62
2023-09-29T06:21:24.264Z,83.58
2023-09-29T06:22:28.601Z,83.92
2023-09-29T06:23:33.623Z,83.84
2023-09-29T06:24:36.183Z,84.91
2023-09-29T06:25:39.666Z,84.55
2023-09-29T06:26:42.131Z,85.95
2023-09-29T06:27:45.800Z,86.18
2023-09-29T06:28:48.388Z,86.70
2023-09-29T06:29:52.304Z,86.83
2023-09-29T06:30:57.257Z,87.22
2023-09-29T06:32:00.851Z,87.21
2023-09-29T06:33:03.479Z,87.22
2023-09-29T06:34:07.301Z,87.06
2023-09-29T06:35:10.731Z,86.42
2023-09-29T06:36:14.274Z,86.32
2023-09-29T06:37:16.781Z,86.16
2023-09-29T06:38:21.797Z,85.54
2023-09-29T06:39:24.261Z,84.62
2023-09-29T06:40:28.766Z,84.53
2023-09-29T06:41:31.780Z,83.60
2023-09-29T06:42:35.776Z,83.33
2023-09-29T06:43:38.565Z,82.95
2023-09-29T06:44:41.980Z,82.51
2023-09-29T06:45:59.554Z,82.12
2023-09-29T06:47:04.236Z,82.19
2023-09-29T06:48:07.541Z,82.05
2023-09-29T06:49:11.263Z,81.88
2023-09-29T06:50:13.691Z,81.76
2023-09-29T06:51:17.145Z,81.30
2023-09-29T06:52:19.644Z,81.72
2023-09-29T06:53:24.905Z,81.24
2023-09-29T06:54:27.494Z,81.03
2023-09-29T06:55:31.028Z,80.94
2023-09-29T06:56:33.864Z,80.70
2023-09-29T06:57:38.020Z,80.54
2023-09-29T06:58:40.943Z,80.41
2023-09-29T06:59:44.958Z,80.44
2023-09-29T07:00:47.730Z,80.36
2023-09-29T07:01:51.302Z,80.29
2023-09-29T07:02:53.999Z,80.13
2023-09-29T07:03:57.937Z,80.33
2023-09-29T07:05:03.024Z,80.01
2023-09-29T07:06:07.887Z,79.88
2023-09-29T07:07:10.847Z,80.82
2023-09-29T07:08:14.368Z,79.97
2023-09-29T07:09:18.420Z,80.02
2023-09-29T07:10:22.058Z,80.96
2023-09-29T07:11:24.515Z,81.89
2023-09-29T07:12:28.633Z,81.93
2023-09-29T07:13:31.168Z,81.00
2023-09-29T07:14:35.236Z,81.79
2023-09-29T07:15:37.830Z,80.64
2023-09-29T07:16:43.827Z,79.60
2023-09-29T07:17:47.115Z,78.89
2023-09-29T07:18:50.918Z,78.65
2023-09-29T07:19:53.517Z,78.61
2023-09-29T07:20:59.480Z,77.94
2023-09-29T07:22:03.128Z,77.28
2023-09-29T07:23:09.958Z,76.55
2023-09-29T07:24:12.964Z,75.28
2023-09-29T07:25:18.185Z,74.20
2023-09-29T07:26:20.890Z,72.83
2023-09-29T07:27:24.813Z,72.16
2023-09-29T07:28:27.368Z,70.81
2023-09-29T07:29:30.864Z,70.01
2023-09-29T07:30:33.765Z,68.86
2023-09-29T07:31:37.822Z,68.11
2023-09-29T07:32:41.833Z,69.39
2023-09-29T07:33:45.679Z,71.49
2023-09-29T07:34:48.308Z,70.78
2023-09-29T07:35:52.120Z,71.47
2023-09-29T07:36:55.174Z,72.43
2023-09-29T07:37:59.918Z,71.23
2023-09-29T07:39:02.398Z,70.09
2023-09-29T07:40:06.894Z,70.09
2023-09-29T07:41:12.090Z,69.76
2023-09-29T07:42:15.701Z,69.16
2023-09-29T07:43:18.313Z,71.11
2023-09-29T07:44:21.872Z,70.59
2023-09-29T07:45:24.412Z,71.25
2023-09-29T07:46:27.992Z,71.08
2023-09-29T07:47:30.788Z,71.29
2023-09-29T07:48:34.688Z,70.08
2023-09-29T07:49:41.856Z,69.13
2023-09-29T07:50:45.952Z,68.75
2023-09-29T07:51:48.802Z,68.16
2023-09-29T07:52:52.718Z,67.90
2023-09-29T07:53:55.208Z,66.68
2023-09-29T07:54:59.076Z,66.18
2023-09-29T07:56:01.458Z,66.50
2023-09-29T07:57:06.427Z,65.63
2023-09-29T07:58:08.946Z,65.91
2023-09-29T07:59:12.396Z,66.18
2023-09-29T08:00:16.877Z,65.75
2023-09-29T08:01:20.861Z,66.24
2023-09-29T08:02:23.406Z,66.23
2023-09-29T08:03:27.191Z,66.79
2023-09-29T08:04:30.470Z,66.38
2023-09-29T08:05:34.219Z,66.71
2023-09-29T08:06:36.818Z,65.22
2023-09-29T08:07:40.319Z,65.70
2023-09-29T08:08:43.056Z,65.60
2023-09-29T08:09:47.263Z,65.93
2023-09-29T08:10:49.932Z,65.32
2023-09-29T08:11:53.790Z,65.05
2023-09-29T08:12:57.942Z,65.19
2023-09-29T08:14:01.627Z,65.55
2023-09-29T08:15:05.663Z,65.44
2023-09-29T08:16:09.214Z,65.22
2023-09-29T08:17:11.777Z,65.57
2023-09-29T08:18:15.611Z,65.87
2023-09-29T08:19:18.108Z,65.94
2023-09-29T08:20:21.948Z,65.82
2023-09-29T08:21:24.601Z,65.77
2023-09-29T08:22:39.802Z,65.96
2023-09-29T08:23:43.843Z,65.55
2023-09-29T08:24:47.826Z,65.88
2023-09-29T08:25:50.264Z,67.00
2023-09-29T08:26:53.786Z,67.63
2023-09-29T08:27:58.043Z,68.53
2023-09-29T08:29:01.869Z,68.43
2023-09-29T08:30:06.533Z,67.72
2023-09-29T08:31:17.042Z,67.40
2023-09-29T08:32:20.895Z,67.98
2023-09-29T08:33:36.343Z,67.32
2023-09-29T08:34:47.873Z,67.73
2023-09-29T08:35:51.895Z,68.26
2023-09-29T08:36:54.546Z,68.26
2023-09-29T08:37:58.592Z,68.06
2023-09-29T08:39:02.338Z,67.88
2023-09-29T08:40:06.659Z,68.03
2023-09-29T08:41:09.850Z,67.79
2023-09-29T08:42:24.574Z,68.08
2023-09-29T08:43:30.611Z,68.78
2023-09-29T08:44:36.102Z,68.94
2023-09-29T08:45:44.183Z,68.60
2023-09-29T08:46:51.476Z,68.28
2023-09-29T08:47:54.716Z,67.54
2023-09-29T08:48:59.601Z,68.13
2023-09-29T08:50:05.628Z,67.99
2023-09-29T08:51:10.454Z,68.26
2023-09-29T08:52:14.208Z,69.02
2023-09-29T08:53:18.252Z,68.04
2023-09-29T08:54:22.297Z,67.57
2023-09-29T08:55:27.052Z,67.16
2023-09-29T08:56:30.038Z,68.19
2023-09-29T08:57:34.408Z,68.02
2023-09-29T08:58:39.317Z,68.31
2023-09-29T08:59:45.386Z,67.71
2023-09-29T09:00:52.026Z,68.42
2023-09-29T09:01:56.711Z,68.60
2023-09-29T09:03:02.772Z,69.48
2023-09-29T09:04:06.454Z,69.11
2023-09-29T09:05:12.363Z,68.74
2023-09-29T09:06:22.983Z,69.06
2023-09-29T09:07:26.543Z,69.36
2023-09-29T09:08:29.371Z,69.51
2023-09-29T09:09:33.875Z,68.87
2023-09-29T09:10:37.484Z,68.77
2023-09-29T09:11:44.399Z,69.08
2023-09-29T09:12:47.704Z,69.56
2023-09-29T09:14:00.854Z,69.94
2023-09-29T09:15:05.797Z,69.84
2023-09-29T09:16:11.338Z,70.71
2023-09-29T09:17:14.262Z,71.30
2023-09-29T09:18:18.231Z,71.67
2023-09-29T09:19:22.635Z,70.96
2023-09-29T09:20:26.623Z,70.76
2023-09-29T09:21:35.435Z,71.04
2023-09-29T09:23:45.318Z,69.56
2023-09-29T09:24:50.762Z,69.75
2023-09-29T09:25:55.697Z,69.66
2023-09-29T09:27:04.405Z,68.85
2023-09-29T09:28:07.866Z,69.23
2023-09-29T09:29:17.133Z,68.53
2023-09-29T09:30:24.837Z,68.80
2023-09-29T09:31:29.001Z,68.39
2023-09-29T09:32:33.336Z,69.24
2023-09-29T09:33:39.272Z,68.38
2023-09-29T09:34:43.006Z,68.47
2023-09-29T09:35:47.327Z,68.85
2023-09-29T09:36:54.068Z,68.32
2023-09-29T09:37:56.994Z,67.48
2023-09-29T09:39:05.118Z,68.37
2023-09-29T09:40:10.646Z,68.53
2023-09-29T09:41:18.060Z,68.41
2023-09-29T09:42:25.828Z,68.99
2023-09-29T09:43:29.721Z,68.84
2023-09-29T09:44:34.050Z,69.44
2023-09-29T09:45:41.378Z,70.16
2023-09-29T09:46:44.416Z,69.94
2023-09-29T09:47:51.443Z,70.50
2023-09-29T09:49:09.742Z,70.03
2023-09-29T09:50:15.637Z,70.17
2023-09-29T09:51:29.895Z,69.98
2023-09-29T09:52:34.388Z,69.99
2023-09-29T09:53:39.441Z,69.78
2023-09-29T09:54:48.277Z,69.34
2023-09-29T09:55:57.310Z,70.11
2023-09-29T09:57:05.611Z,69.85
2023-09-29T09:58:11.208Z,70.58
2023-09-29T09:59:15.133Z,70.28
2023-09-29T10:00:21.134Z,69.80
2023-09-29T10:01:26.914Z,70.30
2023-09-29T10:02:30.596Z,69.92
2023-09-29T10:03:35.191Z,69.98
2023-09-29T10:04:39.730Z,69.27
2023-09-29T10:05:52.637Z,68.94
2023-09-29T10:06:57.438Z,69.25
2023-09-29T10:08:06.961Z,69.30
2023-09-29T10:09:11.621Z,69.74
2023-09-29T10:10:26.728Z,70.22
2023-09-29T10:11:29.603Z,69.78
2023-09-29T10:12:33.469Z,69.08
2023-09-29T10:13:36.854Z,70.01
2023-09-29T10:14:43.534Z,70.42
2023-09-29T10:15:57.892Z,69.60
2023-09-29T10:17:04.492Z,69.69
2023-09-29T10:18:25.963Z,69.55
2023-09-29T10:19:36.612Z,70.35
2023-09-29T10:20:40.292Z,71.27
2023-09-29T10:21:44.601Z,71.30
2023-09-29T10:22:55.707Z,71.14
2023-09-29T10:24:01.878Z,71.72
2023-09-29T10:25:13.227Z,72.15
2023-09-29T10:26:16.339Z,72.42
2023-09-29T10:27:33.383Z,72.53
2023-09-29T10:28:37.232Z,72.00
2023-09-29T10:29:42.505Z,71.88
2023-09-29T10:30:46.818Z,72.13
2023-09-29T10:31:51.520Z,72.08
2023-09-29T10:33:06.946Z,72.55
2023-09-29T10:34:10.819Z,72.89
2023-09-29T10:35:20.554Z,71.38
2023-09-29T10:36:25.843Z,71.83
2023-09-29T10:37:40.052Z,70.63
2023-09-29T10:38:43.845Z,70.74
2023-09-29T10:39:47.986Z,70.52
2023-09-29T10:40:52.806Z,70.15
2023-09-29T10:41:59.774Z,70.05
2023-09-29T10:43:04.495Z,69.62
2023-09-29T10:44:07.935Z,69.87
2023-09-29T10:45:12.709Z,69.49
2023-09-29T10:46:20.142Z,69.94
2023-09-29T10:47:32.657Z,69.54
2023-09-29T10:48:37.627Z,68.14
2023-09-29T10:49:42.263Z,68.25
2023-09-29T10:50:47.666Z,67.93
2023-09-29T10:51:50.338Z,68.17
2023-09-29T10:52:54.135Z,67.91
2023-09-29T10:53:58.697Z,67.41
2023-09-29T10:55:02.425Z,66.68
2023-09-29T10:56:06.201Z,67.28
2023-09-29T10:57:11.561Z,67.12
2023-09-29T10:58:14.990Z,67.75
2023-09-29T10:59:18.621Z,67.92
2023-09-29T11:00:21.871Z,67.50
2023-09-29T11:01:31.685Z,68.42
2023-09-29T11:02:35.286Z,68.56
2023-09-29T11:03:39.013Z,68.08
2023-09-29T11:04:41.822Z,68.74
2023-09-29T11:05:53.216Z,68.00
2023-09-29T11:06:56.171Z,67.51
2023-09-29T11:08:00.368Z,67.60
2023-09-29T11:09:03.072Z,68.05
2023-09-29T11:10:13.404Z,68.21
2023-09-29T11:11:15.876Z,68.43
2023-09-29T11:12:20.027Z,67.30
2023-09-29T11:13:23.134Z,67.58
2023-09-29T11:14:37.803Z,67.33
2023-09-29T11:15:40.375Z,67.61
2023-09-29T11:16:46.438Z,67.11
2023-09-29T11:17:52.240Z,66.46
2023-09-29T11:18:58.177Z,66.17
2023-09-29T11:20:01.095Z,66.00
2023-09-29T11:21:10.661Z,66.82
2023-09-29T11:22:19.208Z,66.44
2023-09-29T11:23:22.212Z,66.28
2023-09-29T11:24:25.714Z,66.24
2023-09-29T11:25:28.252Z,66.53
2023-09-29T11:26:31.826Z,65.62
2023-09-29T11:27:34.325Z,64.48
2023-09-29T11:28:42.369Z,64.71
2023-09-29T11:29:45.653Z,65.31
2023-09-29T11:30:49.985Z,65.80
2023-09-29T11:31:55.122Z,66.11
2023-09-29T11:32:58.788Z,66.03
2023-09-29T11:34:01.859Z,66.41
2023-09-29T11:35:06.482Z,66.15
2023-09-29T11:36:15.764Z,65.93
2023-09-29T11:37:22.287Z,65.42
2023-09-29T11:38:25.506Z,65.49
2023-09-29T11:39:31.446Z,66.15
2023-09-29T11:40:35.283Z,67.04
2023-09-29T11:41:39.739Z,66.31
2023-09-29T11:42:42.284Z,65.48
2023-09-29T11:43:47.832Z,65.33
2023-09-29T11:44:50.252Z,65.64
2023-09-29T11:45:54.334Z,65.47
2023-09-29T11:46:58.305Z,66.06
2023-09-29T11:48:02.533Z,65.84
2023-09-29T11:49:06.167Z,66.96
2023-09-29T11:50:11.228Z,67.05
2023-09-29T11:51:15.540Z,66.99
2023-09-29T11:52:19.054Z,67.09
2023-09-29T11:53:22.099Z,67.69
2023-09-29T11:54:25.806Z,66.96
2023-09-29T11:55:29.056Z,66.88
2023-09-29T11:56:32.985Z,67.65
2023-09-29T11:57:36.038Z,67.93
2023-09-29T11:58:40.805Z,68.04
2023-09-29T11:59:43.443Z,68.07
2023-09-29T12:00:49.827Z,67.69
2023-09-29T12:01:53.530Z,68.15
2023-09-29T12:03:00.384Z,69.04
2023-09-29T12:04:02.970Z,68.56
2023-09-29T12:05:07.802Z,68.95
2023-09-29T12:06:10.596Z,69.29
2023-09-29T12:07:15.579Z,69.16
2023-09-29T12:08:18.462Z,68.55
2023-09-29T12:09:23.971Z,68.31
2023-09-29T12:10:27.011Z,68.44
2023-09-29T12:11:30.396Z,68.46
2023-09-29T12:12:33.766Z,68.53
2023-09-29T12:13:40.805Z,68.86
2023-09-29T12:14:43.412Z,69.18
2023-09-29T12:15:47.355Z,69.55
2023-09-29T12:16:49.796Z,69.76
2023-09-29T12:17:53.379Z,68.93
2023-09-29T12:18:58.246Z,68.92
2023-09-29T12:20:01.911Z,68.96
2023-09-29T12:21:08.672Z,68.70
2023-09-29T12:22:12.670Z,68.80
2023-09-29T12:23:15.141Z,68.72
2023-09-29T12:24:19.354Z,68.57
2023-09-29T12:25:22.823Z,67.99
2023-09-29T12:26:28.033Z,68.03
2023-09-29T12:27:30.543Z,67.94
2023-09-29T12:28:34.407Z,67.84
2023-09-29T12:29:37.386Z,67.74
2023-09-29T12:30:41.272Z,68.05
2023-09-29T12:31:43.860Z,68.76
2023-09-29T12:32:48.197Z,69.15
2023-09-29T12:33:51.526Z,68.73
2023-09-29T12:34:56.541Z,68.31
2023-09-29T12:36:00.545Z,68.82
2023-09-29T12:37:05.862Z,68.97
2023-09-29T12:38:08.438Z,68.96
2023-09-29T12:39:11.983Z,69.01
2023-09-29T12:40:16.228Z,69.08
2023-09-29T12:41:19.793Z,68.91
2023-09-29T12:42:22.233Z,68.88
2023-09-29T12:43:26.095Z,68.52
2023-09-29T12:44:28.626Z,68.99
2023-09-29T12:45:32.196Z,69.26
2023-09-29T12:46:35.847Z,69.07
2023-09-29T12:47:40.051Z,69.49
2023-09-29T12:48:43.606Z,70.06
2023-09-29T12:49:47.430Z,70.46
2023-09-29T12:50:51.570Z,70.22
2023-09-29T12:52:01.443Z,71.75
2023-09-29T12:53:05.204Z,70.65
2023-09-29T12:54:09.326Z,70.20
2023-09-29T12:55:12.938Z,70.22
2023-09-29T12:56:17.125Z,70.20
2023-09-29T12:57:21.404Z,69.81
2023-09-29T12:58:25.004Z,69.96
2023-09-29T12:59:29.110Z,70.46
2023-09-29T13:00:35.780Z,71.25
2023-09-29T13:01:38.490Z,72.02
2023-09-29T13:02:42.222Z,71.59
2023-09-29T13:03:44.881Z,71.17
2023-09-29T13:04:48.802Z,70.65
2023-09-29T13:05:59.044Z,70.52
2023-09-29T13:07:02.634Z,70.82
2023-09-29T13:08:06.102Z,70.39
2023-09-29T13:09:12.825Z,69.87
2023-09-29T13:10:15.410Z,70.28
2023-09-29T13:11:19.518Z,70.12
2023-09-29T13:12:31.191Z,70.73
2023-09-29T13:13:35.250Z,71.21
2023-09-29T13:14:38.316Z,71.29
2023-09-29T13:15:42.864Z,71.84
2023-09-29T13:16:45.421Z,72.08
2023-09-29T13:17:49.280Z,71.57
2023-09-29T13:18:53.555Z,71.82
2023-09-29T13:19:57.219Z,71.13
2023-09-29T13:21:01.273Z,71.07
2023-09-29T13:22:04.747Z,71.08
2023-09-29T13:23:08.254Z,71.73
2023-09-29T13:24:11.863Z,72.11
2023-09-29T13:25:14.438Z,71.90
2023-09-29T13:26:19.767Z,71.79
2023-09-29T13:27:22.485Z,71.20
2023-09-29T13:28:29.183Z,72.11
2023-09-29T13:29:33.659Z,71.24
2023-09-29T13:30:51.485Z,71.41
2023-09-29T13:31:56.628Z,71.67
2023-09-29T13:33:00.397Z,71.37
2023-09-29T13:34:03.175Z,71.32
2023-09-29T13:35:09.676Z,71.47
2023-09-29T13:36:13.676Z,71.97
2023-09-29T13:37:19.576Z,72.05
2023-09-29T13:38:22.135Z,72.58
2023-09-29T13:39:25.641Z,71.84
2023-09-29T13:40:28.145Z,72.26
2023-09-29T13:41:31.113Z,72.41
2023-09-29T13:42:35.181Z,71.96
2023-09-29T13:43:37.640Z,73.10
2023-09-29T13:44:41.136Z,72.57
2023-09-29T13:45:43.740Z,72.68
2023-09-29T13:47:02.713Z,73.10
2023-09-29T13:48:06.949Z,73.02
2023-09-29T13:49:10.522Z,72.55
2023-09-29T13:50:13.059Z,72.35
2023-09-29T13:51:18.470Z,71.48
2023-09-29T13:52:21.068Z,72.04